Station: Bowen Airport Aws  

  Atmospheric Gas Attenuation - ITU Rec 676-11   ----------------- dB/100km -----------------
Date Time Temp RH % AH g/m3 Dew Point Wind Direction Speed kph Gust kph Barometer mB Rainfall Since 9am 24GHz 47GHz 76GHz 122GHz 134GHz 241GHz
08/05 12:40 27.5 46 12.17 15.1 30 33 1016.2 0 26.4 27.5 46.4 122.3 124.7 432.2
08/05 12:30 27.3 45 11.78 14.3 28 35 1016.3 0 25.6 27.0 45.1 118.7 120.2 416.5
08/05 12:20 27.3 45 11.78 14.6 22 26 1016.4 0 25.6 27.0 45.1 118.7 120.2 416.6
08/05 12:10 27.6 43 11.44 14.2 26 30 1016.5 0 24.8 26.4 43.7 114.9 115.7 400.6
08/05 12:00 27 46 11.84 14.4 28 37 1016.6 0 25.7 27.2 45.5 119.7 121.5 420.8
08/05 11:50 27 44 11.32 14 30 33 1016.8 0 24.6 26.4 43.5 114.6 115.1 398.6
08/05 11:40 26.9 44 11.26 13.9 28 32 1016.9 0 24.5 26.4 43.4 114.2 114.6 396.6
08/05 11:30 27.3 44 11.51 14 28 37 1017.1 0 25.0 26.6 44.1 116.1 117.0 405.3
08/05 11:20 27.1 44 11.39 14.1 32 37 1017.2 0 24.8 26.5 43.8 115.2 115.9 401.2
08/05 11:10 26.6 45 11.33 13.7 30 35 1017.4 0 24.7 26.6 43.8 115.3 115.9 401.2
08/05 11:00 27.4 41 10.79 13 28 37 1017.4 0 23.5 25.5 41.4 109.0 108.3 374.7
08/05 10:50 27 42 10.81 13.3 22 30 1017.5 0 23.6 25.7 41.7 109.7 109.1 377.4
08/05 10:40 27 44 11.32 13.7 28 32 1017.6 0 24.6 26.4 43.6 114.7 115.2 398.9
08/05 10:30 26.4 45 11.2 13.5 28 37 1017.6 0 24.4 26.4 43.5 114.4 114.6 396.7
08/05 10:20 26.5 43 10.76 13.2 28 30 1017.6 0 23.5 25.7 41.8 109.9 109.2 377.7
08/05 10:10 26 45 10.96 13.4 32 37 1017.6 0 23.9 26.2 42.8 112.6 112.3 388.5
08/05 10:00 26.2 44 10.83 13 28 37 1017.5 0 23.6 25.9 42.2 111.0 110.4 382.0
08/05 09:50 25.6 44 10.48 12.7 28 32 1017.6 0 22.9 25.6 41.2 108.4 107.0 370.1
08/05 09:40 25.7 44 10.53 12.5 30 33 1017.7 0 23.0 25.6 41.4 108.8 107.5 371.7
08/05 09:30 25.7 45 10.77 12.9 28 37 1017.7 0 23.5 26.0 42.2 111.1 110.4 381.9
08/05 09:20 25 44 10.13 12.2 28 33 1017.7 0 22.2 25.2 40.3 105.8 103.6 358.1
08/05 09:10 25.3 43 10.07 12.1 28 33 1017.6 0 22.1 25.1 39.9 104.8 102.5 354.2
08/05 09:00 24.9 44 10.07 11.8 24 33 1017.5 0 22.1 25.2 40.1 105.3 103.0 356.0
08/05 08:50 25 44 10.13 11.9 26 30 1017.4 0 22.2 25.2 40.2 105.7 103.6 358.0
08/05 08:40 24.4 46 10.24 12 28 33 1017.2 0 22.5 25.6 40.9 107.6 105.7 365.3
08/05 08:30 24.1 48 10.5 12.4 28 43 1017.2 0 23.1 26.0 42.1 110.6 109.3 377.8
08/05 08:20 23.4 50 10.51 12.4 26 33 1017 0 23.1 26.2 42.5 111.6 110.3 381.5
08/05 08:10 23.7 50 10.69 12.9 30 37 1017 0 23.5 26.4 43.0 113.0 112.2 387.8
08/05 08:00 23.3 53 11.08 13.2 26 33 1017 0 24.3 27.1 44.7 117.6 117.6 406.9
08/05 07:50 23.1 53 10.96 13.2 26 32 1016.9 0 24.1 27.0 44.3 116.6 116.4 402.6
08/05 07:40 22.6 55 11.05 13.3 22 30 1016.7 0 24.3 27.3 44.9 118.3 118.3 409.1
08/05 07:30 22.9 58 11.85 14.2 20 28 1016.6 0 26.0 28.5 47.9 126.2 128.1 443.5
08/05 07:20 22.4 61 12.11 14.5 24 28 1016.5 0 26.6 29.1 49.3 129.7 132.3 458.3
08/05 07:10 22 65 12.61 15.1 20 26 1016.4 0 27.6 30.0 51.5 135.8 139.7 484.0
08/05 07:00 21.4 72 13.5 16.1 19 28 1016.4 0 29.6 31.7 55.7 146.9 153.1 530.6
08/05 06:50 21.1 78 14.37 17.1 19 22 1016.3 0 31.4 33.4 59.7 157.5 166.1 575.9
08/05 06:40 21 79 14.47 17.2 17 19 1016.1 0 31.7 33.6 60.2 158.9 167.7 581.6
08/05 06:30 20.9 81 14.75 17.5 15 22 1015.9 0 32.3 34.1 61.5 162.4 172.0 596.5
08/05 06:20 21 83 15.2 18 11 13 1015.7 0 33.2 34.9 63.4 167.5 178.4 618.6
08/05 06:10 21 84 15.39 18.3 11 13 1015.6 0 33.6 35.2 64.3 169.8 181.2 628.4
08/05 06:00 21.2 85 15.75 18.6 13 20 1015.5 0 34.4 35.8 65.8 173.7 186.0 645.4
08/05 05:50 21.4 84 15.75 18.7 13 15 1015.4 0 34.4 35.7 65.6 173.2 185.5 643.7
08/05 05:40 21.6 83 15.74 18.7 17 19 1015.3 0 34.3 35.6 65.4 172.6 184.9 641.4
08/05 05:30 21.6 86 16.31 19.2 17 24 1015.1 0 35.5 36.6 68.0 179.6 193.4 671.1
08/05 05:20 21.8 86 16.5 19.3 19 24 1015 0 35.9 36.9 68.7 181.4 195.8 679.3
08/05 05:10 21.7 86 16.4 19.2 17 20 1015 0 35.7 36.7 68.3 180.4 194.5 674.9
08/05 05:00 21.7 86 16.4 19.3 15 20 1014.8 0 35.7 36.7 68.3 180.4 194.5 674.8
08/05 04:50 21.6 86 16.31 19.1 15 17 1014.8 0 35.5 36.6 67.9 179.5 193.4 671.0
08/05 04:40 21.7 86 16.4 19.2 15 19 1014.8 0 35.7 36.7 68.3 180.4 194.5 674.8
08/05 04:30 21.5 86 16.22 19.1 13 17 1014.7 0 35.4 36.5 67.6 178.6 192.3 667.1
08/05 04:20 21.6 86 16.31 19.1 15 19 1014.7 0 35.5 36.6 67.9 179.5 193.4 670.9
08/05 04:10 21.4 86 16.12 18.9 13 15 1014.7 0 35.2 36.3 67.2 177.6 191.0 662.7
08/05 04:00 21.4 87 16.31 19.1 11 17 1014.6 0 35.6 36.7 68.1 180.0 193.9 672.6
08/05 03:50 21.2 87 16.12 18.9 11 15 1014.6 0 35.2 36.4 67.4 178.1 191.5 664.4
08/05 03:40 21.1 88 16.21 19 11 13 1014.7 0 35.4 36.6 67.9 179.5 193.1 670.1
08/05 03:30 20.9 90 16.39 19.2 9 13 1014.7 0 35.8 37.1 68.9 182.2 196.4 681.4
08/05 03:20 19.8 92 15.71 18.4 7 9 1014.7 0 34.4 36.3 66.7 176.3 188.8 654.9
08/05 03:10 19.3 92 15.26 17.9 0 0 1014.7 0 33.5 35.6 65.1 171.9 183.2 635.3
08/05 03:00 19.1 92 15.08 17.8 0 0 1014.7 0 33.1 35.4 64.4 170.1 181.0 627.5
08/05 02:50 19.3 92 15.26 17.9 0 0 1014.7 0 33.5 35.6 65.1 171.9 183.2 635.3
08/05 02:40 19.3 90 14.93 17.6 2 4 1014.8 0 32.8 35.0 63.6 167.8 178.3 618.0
08/05 02:30 19.7 89 15.11 17.8 4 6 1014.7 0 33.1 35.2 64.0 169.1 180.0 624.1
08/05 02:20 20.4 89 15.74 18.5 6 6 1014.8 0 34.4 36.1 66.4 175.3 187.8 651.4
08/05 02:10 21.3 88 16.4 19.2 6 6 1014.8 0 35.8 36.9 68.6 181.4 195.5 678.4
08/05 02:00 21.4 88 16.5 19.3 6 7 1014.8 0 36.0 37.0 69.0 182.4 196.8 682.8
08/05 01:50 21.5 89 16.78 19.6 6 7 1014.9 0 36.6 37.5 70.2 185.6 200.8 696.8
08/05 01:40 21.5 89 16.78 19.6 7 7 1014.8 0 36.6 37.5 70.2 185.6 200.8 696.8
08/05 01:30 21.6 89 16.88 19.7 9 13 1014.7 0 36.8 37.7 70.6 186.6 202.0 701.2
08/05 01:20 21.8 88 16.88 19.7 9 11 1014.7 0 36.7 37.6 70.4 186.1 201.5 699.3
08/05 01:10 22.1 88 17.18 20 13 13 1014.7 0 37.4 38.0 71.5 189.1 205.3 712.5
08/05 01:00 22 90 17.47 20.3 11 15 1014.8 0 38.0 38.6 73.0 193.0 210.1 729.1
08/05 00:50 22.2 89 17.47 20.4 11 15 1014.9 0 38.0 38.5 72.8 192.5 209.5 727.3
08/05 00:40 22.1 91 17.76 20.5 11 11 1014.9 0 38.6 39.1 74.3 196.5 214.3 743.9
08/05 00:30 22.1 91 17.76 20.6 11 15 1015 0 38.6 39.1 74.3 196.5 214.3 744.0
08/05 00:20 21.9 91 17.56 20.3 9 9 1015.1 0 38.2 38.8 73.6 194.5 211.8 735.1
08/05 00:10 21.8 92 17.65 20.4 11 11 1015.1 0 38.4 39.1 74.1 195.9 213.5 741.0
08/05 00:00 21.8 92 17.65 20.4 7 11 1015.3 0 38.4 39.1 74.1 195.9 213.5 741.1
07/05 23:50 21.8 91 17.46 20.2 7 7 1015.4 0 38.0 38.7 73.2 193.5 210.6 730.8
07/05 23:40 21.8 91 17.46 20.2 7 9 1015.3 0 38.0 38.7 73.2 193.5 210.5 730.8
07/05 23:30 22.1 91 17.76 20.6 9 13 1015.5 0 38.6 39.1 74.3 196.5 214.4 744.2
07/05 23:20 21.9 91 17.56 20.3 9 9 1015.4 0 38.2 38.9 73.6 194.5 211.8 735.3
07/05 23:10 21.7 91 17.36 20.1 7 7 1015.4 0 37.8 38.6 72.8 192.5 209.3 726.4
07/05 23:00 21.6 89 16.88 19.7 7 9 1015.5 0 36.8 37.7 70.6 186.7 202.2 701.6
07/05 22:50 21.8 88 16.88 19.7 7 9 1015.5 0 36.7 37.6 70.5 186.2 201.6 699.7
07/05 22:40 22 87 16.88 19.7 7 9 1015.5 0 36.7 37.5 70.3 185.7 201.1 697.9
07/05 22:30 22.2 87 17.08 19.9 9 11 1015.5 0 37.1 37.8 71.0 187.7 203.6 706.7
07/05 22:20 22.6 86 17.28 20.1 9 11 1015.5 0 37.5 38.0 71.6 189.2 205.6 713.6
07/05 22:10 22.5 86 17.18 20 7 9 1015.6 0 37.3 37.9 71.2 188.2 204.3 709.2
07/05 22:00 22.5 85 16.98 19.9 9 13 1015.8 0 36.9 37.5 70.3 185.8 201.3 698.7
07/05 21:50 22.5 85 16.98 19.8 9 11 1015.8 0 36.9 37.5 70.3 185.8 201.3 698.7
07/05 21:40 22.6 84 16.87 19.7 13 15 1015.8 0 36.6 37.3 69.7 184.2 199.4 692.0
07/05 21:30 23 83 17.06 20 13 19 1015.8 0 37.0 37.4 70.2 185.6 201.2 698.3
07/05 21:20 23.2 84 17.46 20.3 13 15 1015.8 0 37.8 38.1 71.9 190.0 206.7 717.6
07/05 21:10 23.3 84 17.56 20.4 19 19 1015.9 0 38.0 38.2 72.3 191.0 208.0 722.0
07/05 21:00 23.3 84 17.56 20.4 15 20 1015.8 0 38.1 38.2 72.3 191.0 208.0 722.0
07/05 20:50 23.5 83 17.55 20.4 17 19 1015.7 0 38.0 38.1 72.0 190.4 207.2 719.5
07/05 20:40 23.4 83 17.45 20.3 17 20 1015.7 0 37.8 38.0 71.6 189.4 206.0 715.1
07/05 20:30 23.6 82 17.44 20.3 17 22 1015.8 0 37.8 37.9 71.4 188.8 205.3 712.8
07/05 20:20 23.7 81 17.32 20.2 17 20 1015.8 0 37.5 37.6 70.8 187.0 203.2 705.5
07/05 20:10 23.8 79 16.99 19.9 15 17 1015.8 0 36.8 36.9 69.2 182.8 198.0 687.4

Last Refresh: 08-May-2026 12:09:34

Bureau of Meteorology